createdAt,value
2019-03-20T00:02:11.146Z,4.17
2019-03-20T00:04:49.264Z,4.22
2019-03-20T00:07:16.165Z,4.40
2019-03-20T00:09:47.186Z,4.22
2019-03-20T00:12:17.059Z,3.62
2019-03-20T00:14:46.977Z,3.37
2019-03-20T00:17:16.900Z,3.95
2019-03-20T00:19:48.753Z,4.17
2019-03-20T00:22:18.759Z,4.60
2019-03-20T00:24:48.758Z,4.05
2019-03-20T00:27:18.671Z,4.37
2019-03-20T00:29:48.613Z,4.28
2019-03-20T00:32:18.546Z,4.75
2019-03-20T00:34:48.644Z,3.65
2019-03-20T00:37:18.594Z,3.77
2019-03-20T00:39:48.684Z,4.50
2019-03-20T00:42:18.745Z,3.90
2019-03-20T00:44:48.679Z,3.83
2019-03-20T00:47:23.829Z,4.95
2019-03-20T00:49:58.184Z,4.37
2019-03-20T00:52:28.052Z,4.28
2019-03-20T00:54:57.959Z,4.35
2019-03-20T00:57:27.923Z,5.25
2019-03-20T01:00:00.988Z,3.83
2019-03-20T01:02:31.787Z,4.37
2019-03-20T01:05:12.206Z,4.67
2019-03-20T01:07:34.651Z,4.83
2019-03-20T01:10:06.819Z,4.50
2019-03-20T01:12:36.805Z,3.42
2019-03-20T01:15:06.966Z,5.58
2019-03-20T01:17:36.844Z,5.00
2019-03-20T01:20:07.783Z,4.53
2019-03-20T01:22:37.625Z,5.25
2019-03-20T01:25:10.080Z,4.83
2019-03-20T01:27:40.197Z,5.42
2019-03-20T01:30:36.543Z,4.62
2019-03-20T01:33:08.824Z,4.80
2019-03-20T01:35:41.195Z,4.10
2019-03-20T01:38:11.221Z,4.60
2019-03-20T01:40:42.535Z,4.40
2019-03-20T01:43:12.366Z,4.50
2019-03-20T01:45:42.418Z,4.20
2019-03-20T01:48:15.253Z,4.10
2019-03-20T01:50:45.132Z,4.35
2019-03-20T01:53:15.113Z,4.53
2019-03-20T01:55:45.440Z,3.90
2019-03-20T01:58:16.521Z,5.12
2019-03-20T02:00:46.409Z,4.22
2019-03-20T02:03:16.471Z,3.95
2019-03-20T02:05:46.540Z,3.85
2019-03-20T02:08:16.558Z,4.65
2019-03-20T02:10:47.258Z,5.25
2019-03-20T02:13:18.811Z,4.53
2019-03-20T02:15:48.723Z,4.67
2019-03-20T02:18:18.824Z,4.70
2019-03-20T02:20:48.937Z,4.12
2019-03-20T02:23:18.800Z,4.58
2019-03-20T02:25:48.750Z,4.42
2019-03-20T02:28:18.707Z,4.67
2019-03-20T02:30:48.663Z,4.40
2019-03-20T02:33:18.555Z,4.42
2019-03-20T02:35:52.292Z,4.35
2019-03-20T02:38:22.280Z,4.60
2019-03-20T02:40:52.170Z,5.15
2019-03-20T02:43:22.273Z,6.65
2019-03-20T02:45:53.653Z,4.70
2019-03-20T02:48:25.749Z,4.62
2019-03-20T02:50:57.447Z,4.30
2019-03-20T02:53:29.258Z,3.87
2019-03-20T02:55:59.230Z,4.65
2019-03-20T02:58:29.079Z,4.42
2019-03-20T03:00:59.006Z,4.35
2019-03-20T03:03:29.113Z,5.17
2019-03-20T03:06:06.574Z,4.50
2019-03-20T03:08:30.922Z,4.62
2019-03-20T03:11:00.976Z,5.05
2019-03-20T03:13:30.771Z,5.33
2019-03-20T03:16:00.675Z,4.65
2019-03-20T03:18:30.487Z,4.45
2019-03-20T03:21:00.523Z,4.65
2019-03-20T03:23:30.584Z,5.05
2019-03-20T03:26:03.136Z,4.35
2019-03-20T03:28:32.945Z,5.12
2019-03-20T03:31:02.181Z,5.25
2019-03-20T03:33:32.210Z,4.03
2019-03-20T03:36:02.139Z,4.58
2019-03-20T03:38:31.975Z,4.80
2019-03-20T03:41:01.898Z,4.87
2019-03-20T03:43:31.716Z,4.85
2019-03-20T03:46:01.594Z,4.70
2019-03-20T03:48:31.384Z,5.10
2019-03-20T03:51:01.288Z,6.12
2019-03-20T03:53:31.113Z,5.05
2019-03-20T03:56:00.961Z,5.45
2019-03-20T03:58:32.834Z,5.42
2019-03-20T04:01:02.690Z,5.00
2019-03-20T04:03:32.583Z,4.30
2019-03-20T04:06:02.538Z,5.10
2019-03-20T04:08:32.625Z,4.90
2019-03-20T04:11:02.845Z,5.70
2019-03-20T04:13:32.868Z,4.78
2019-03-20T04:16:03.073Z,4.08
2019-03-20T04:18:33.178Z,5.05
2019-03-20T04:21:03.035Z,5.28
2019-03-20T04:23:32.994Z,5.97
2019-03-20T04:26:03.060Z,4.90
2019-03-20T04:28:32.954Z,5.92
2019-03-20T04:31:03.040Z,4.60
2019-03-20T04:33:32.916Z,5.05
2019-03-20T04:36:02.846Z,4.15
2019-03-20T04:38:32.837Z,5.10
2019-03-20T04:41:02.882Z,4.90
2019-03-20T04:43:32.777Z,5.40
2019-03-20T04:46:02.712Z,5.65
2019-03-20T04:48:32.587Z,5.20
2019-03-20T04:51:02.520Z,6.00
2019-03-20T04:53:32.449Z,5.20
2019-03-20T04:56:05.660Z,5.33
2019-03-20T04:58:35.592Z,5.22
2019-03-20T05:01:05.487Z,5.37
2019-03-20T05:03:35.401Z,5.97
2019-03-20T05:06:05.329Z,5.25
2019-03-20T05:08:35.217Z,5.60
2019-03-20T05:11:05.157Z,5.75
2019-03-20T05:13:35.032Z,6.37
2019-03-20T05:16:06.247Z,5.05
2019-03-20T05:18:36.128Z,5.10
2019-03-20T05:21:06.080Z,5.30
2019-03-20T05:23:35.946Z,5.40
2019-03-20T05:26:06.109Z,5.55
2019-03-20T05:28:36.040Z,5.33
2019-03-20T05:31:06.040Z,5.58
2019-03-20T05:33:35.894Z,5.33
2019-03-20T05:36:05.776Z,5.08
2019-03-20T05:38:35.644Z,6.50
2019-03-20T05:41:05.644Z,5.33
2019-03-20T05:43:35.621Z,5.90
2019-03-20T05:46:05.756Z,5.78
2019-03-20T05:48:36.018Z,5.37
2019-03-20T05:51:06.194Z,6.15
2019-03-20T05:53:36.292Z,5.55
2019-03-20T05:56:06.393Z,5.50
2019-03-20T05:58:36.322Z,5.03
2019-03-20T06:01:06.295Z,5.83
2019-03-20T06:03:36.101Z,5.72
2019-03-20T06:06:06.120Z,6.95
2019-03-20T06:08:36.138Z,6.30
2019-03-20T06:11:06.227Z,6.30
2019-03-20T06:13:36.498Z,6.40
2019-03-20T06:16:06.476Z,7.10
2019-03-20T06:18:36.352Z,6.50
2019-03-20T06:21:06.281Z,6.42
2019-03-20T06:23:36.195Z,6.90
2019-03-20T06:26:06.163Z,8.23
2019-03-20T06:28:36.170Z,6.45
2019-03-20T06:31:06.167Z,7.00
2019-03-20T06:33:37.535Z,7.00
2019-03-20T06:36:07.573Z,7.03
2019-03-20T06:38:38.239Z,8.18
2019-03-20T06:41:08.460Z,6.65
2019-03-20T06:43:40.530Z,10.48
2019-03-20T06:46:10.868Z,7.75
2019-03-20T06:48:41.149Z,8.13
2019-03-20T06:51:13.409Z,8.20
2019-03-20T06:53:43.579Z,8.40
2019-03-20T06:56:18.229Z,7.58
2019-03-20T06:59:40.717Z,7.92
2019-03-20T07:02:12.061Z,8.43
2019-03-20T07:05:41.007Z,7.92
2019-03-20T07:08:11.412Z,7.12
2019-03-20T07:11:19.013Z,8.63
2019-03-20T07:13:50.623Z,7.75
2019-03-20T07:16:20.694Z,8.25
2019-03-20T07:18:50.754Z,8.53
2019-03-20T07:21:23.566Z,8.80
2019-03-20T07:23:55.050Z,7.87
2019-03-20T07:26:25.339Z,8.73
2019-03-20T07:28:55.453Z,8.73
2019-03-20T07:31:25.817Z,8.30
2019-03-20T07:33:56.005Z,8.55
2019-03-20T07:36:30.501Z,9.15
2019-03-20T07:39:03.860Z,8.15
2019-03-20T07:41:35.645Z,8.35
2019-03-20T07:44:17.072Z,8.03
2019-03-20T07:46:47.635Z,8.75
2019-03-20T07:49:18.697Z,7.80
2019-03-20T07:51:49.354Z,8.13
2019-03-20T07:54:21.675Z,8.43
2019-03-20T07:56:51.635Z,9.60
2019-03-20T07:59:21.670Z,8.55
2019-03-20T08:01:51.720Z,8.68
2019-03-20T08:04:21.759Z,9.43
2019-03-20T08:06:51.841Z,8.60
2019-03-20T08:09:22.177Z,9.23
2019-03-20T08:11:52.593Z,9.05
2019-03-20T08:14:22.645Z,8.65
2019-03-20T08:16:52.787Z,9.30
2019-03-20T08:19:23.169Z,10.40
2019-03-20T08:21:53.463Z,10.10
2019-03-20T08:24:23.657Z,10.70
2019-03-20T08:26:53.703Z,9.65
2019-03-20T08:29:23.665Z,9.85
2019-03-20T08:31:53.625Z,10.20
2019-03-20T08:34:24.035Z,10.63
2019-03-20T08:36:54.302Z,11.35
2019-03-20T08:39:24.585Z,11.00
2019-03-20T08:41:54.603Z,9.30
2019-03-20T08:44:25.017Z,10.28
2019-03-20T08:46:55.136Z,9.50
2019-03-20T08:49:27.938Z,10.18
2019-03-20T08:51:57.867Z,10.45
2019-03-20T08:54:28.341Z,10.48
2019-03-20T08:56:58.767Z,10.60
2019-03-20T08:59:28.864Z,9.90
2019-03-20T09:01:59.154Z,9.98
2019-03-20T09:04:29.086Z,9.15
2019-03-20T09:06:59.108Z,10.08
2019-03-20T09:09:29.239Z,8.98
2019-03-20T09:11:59.361Z,9.23
2019-03-20T09:14:29.498Z,7.87
2019-03-20T09:16:59.401Z,9.03
2019-03-20T09:19:29.441Z,7.75
2019-03-20T09:21:59.455Z,8.58
2019-03-20T09:24:29.354Z,8.00
2019-03-20T09:26:59.330Z,7.15
2019-03-20T09:29:36.161Z,6.08
2019-03-20T09:32:01.251Z,6.40
2019-03-20T09:34:31.573Z,5.45
2019-03-20T09:37:01.674Z,4.90
2019-03-20T09:39:31.921Z,3.55
2019-03-20T09:42:01.831Z,3.75
2019-03-20T09:44:31.852Z,4.55
2019-03-20T09:47:01.961Z,4.80
2019-03-20T09:49:31.972Z,3.25
2019-03-20T09:52:01.944Z,3.05
2019-03-20T09:54:32.113Z,3.55
2019-03-20T09:57:01.945Z,4.45
2019-03-20T09:59:31.937Z,3.92
2019-03-20T10:02:03.011Z,3.50
2019-03-20T10:04:32.980Z,2.50
2019-03-20T10:07:04.327Z,2.72
2019-03-20T10:09:34.341Z,3.12
2019-03-20T10:12:04.575Z,4.00
2019-03-20T10:14:34.425Z,3.00
2019-03-20T10:17:04.441Z,3.40
2019-03-20T10:19:34.421Z,3.08
2019-03-20T10:22:04.612Z,2.40
2019-03-20T10:24:34.816Z,3.05
2019-03-20T10:27:08.855Z,3.42
2019-03-20T10:29:57.305Z,3.05
2019-03-20T10:32:29.644Z,2.27
2019-03-20T10:35:00.370Z,2.30
2019-03-20T10:37:33.074Z,2.50
2019-03-20T10:40:04.614Z,2.30
2019-03-20T10:42:35.610Z,3.55
2019-03-20T10:45:10.457Z,3.72
2019-03-20T10:47:40.741Z,2.55
2019-03-20T10:50:21.253Z,2.52
2019-03-20T10:52:54.966Z,2.90
2019-03-20T10:55:52.863Z,4.00
2019-03-20T10:58:29.288Z,3.27
2019-03-20T11:01:02.655Z,3.30
2019-03-20T11:03:33.952Z,4.55
2019-03-20T11:06:04.445Z,4.03
2019-03-20T11:08:34.720Z,4.03
2019-03-20T11:11:05.554Z,4.15
2019-03-20T11:13:36.264Z,3.70
2019-03-20T11:16:06.358Z,3.95
2019-03-20T11:18:36.973Z,3.75
2019-03-20T11:21:09.424Z,3.77
2019-03-20T11:23:40.098Z,3.60
2019-03-20T11:26:11.243Z,3.65
2019-03-20T11:28:41.429Z,2.50
2019-03-20T11:31:11.631Z,3.12
2019-03-20T11:33:42.152Z,3.22
2019-03-20T11:36:12.588Z,3.33
2019-03-20T11:38:42.741Z,3.00
2019-03-20T11:41:12.896Z,4.50
2019-03-20T11:43:43.008Z,2.42
2019-03-20T11:46:13.369Z,2.50
2019-03-20T11:48:44.708Z,2.27
2019-03-20T11:51:16.041Z,3.27
2019-03-20T11:53:46.382Z,2.75
2019-03-20T11:56:16.810Z,2.90
2019-03-20T11:58:47.243Z,2.75
2019-03-20T12:01:17.253Z,2.37
2019-03-20T12:03:47.133Z,2.20
2019-03-20T12:06:17.142Z,2.75
2019-03-20T12:08:47.980Z,2.30
2019-03-20T12:11:17.981Z,2.60
2019-03-20T12:13:47.992Z,1.85
2019-03-20T12:16:19.687Z,2.02
2019-03-20T12:18:50.008Z,2.60
2019-03-20T12:21:20.139Z,2.45
2019-03-20T12:23:50.572Z,3.15
2019-03-20T12:26:27.521Z,3.42
2019-03-20T12:28:59.198Z,2.65
2019-03-20T12:31:29.417Z,2.98
2019-03-20T12:34:02.141Z,2.20
2019-03-20T12:36:41.641Z,2.30
2019-03-20T12:39:12.146Z,2.22
2019-03-20T12:41:42.243Z,3.80
2019-03-20T12:44:12.674Z,3.17
2019-03-20T12:46:42.790Z,2.90
2019-03-20T12:49:12.911Z,3.00
2019-03-20T12:51:42.978Z,3.55
2019-03-20T12:54:17.203Z,3.20
2019-03-20T12:56:48.513Z,3.47
2019-03-20T12:59:19.138Z,3.30
2019-03-20T13:01:50.255Z,2.70
2019-03-20T13:04:20.288Z,3.33
2019-03-20T13:06:50.162Z,3.52
2019-03-20T13:09:19.978Z,3.12
2019-03-20T13:11:50.404Z,3.58
2019-03-20T13:14:20.407Z,2.15
2019-03-20T13:16:50.299Z,2.20
2019-03-20T13:19:20.423Z,1.95
2019-03-20T13:21:50.381Z,2.50
2019-03-20T13:24:21.728Z,2.08
2019-03-20T13:26:51.728Z,2.25
2019-03-20T13:29:21.668Z,2.25
2019-03-20T13:31:53.146Z,2.45
2019-03-20T13:34:25.336Z,2.62
2019-03-20T13:36:55.304Z,2.37
2019-03-20T13:39:25.392Z,2.47
2019-03-20T13:41:56.318Z,2.95
2019-03-20T13:44:26.355Z,2.75
2019-03-20T13:46:56.579Z,2.08
2019-03-20T13:49:28.004Z,2.08
2019-03-20T13:51:57.998Z,2.72
2019-03-20T13:54:27.848Z,2.30
2019-03-20T13:56:57.736Z,2.05
2019-03-20T13:59:27.798Z,2.40
2019-03-20T14:01:57.783Z,1.80
2019-03-20T14:04:29.267Z,2.35
2019-03-20T14:06:59.192Z,2.33
2019-03-20T14:09:29.248Z,2.75
2019-03-20T14:11:59.452Z,2.30
2019-03-20T14:14:29.675Z,2.87
2019-03-20T14:16:59.557Z,2.35
2019-03-20T14:19:29.422Z,2.47
2019-03-20T14:21:59.403Z,2.40
2019-03-20T14:24:29.431Z,2.37
2019-03-20T14:26:59.396Z,2.80
2019-03-20T14:29:29.524Z,2.02
2019-03-20T14:31:59.364Z,2.80
2019-03-20T14:34:29.383Z,2.58
2019-03-20T14:36:59.288Z,2.87
2019-03-20T14:39:29.301Z,2.70
2019-03-20T14:41:59.552Z,2.20
2019-03-20T14:44:29.673Z,2.50
2019-03-20T14:46:59.789Z,2.75
2019-03-20T14:49:29.892Z,1.65
2019-03-20T14:51:59.949Z,2.15
2019-03-20T14:54:30.207Z,2.25
2019-03-20T14:57:00.210Z,2.00
2019-03-20T14:59:30.569Z,2.12
2019-03-20T15:02:01.944Z,2.42
2019-03-20T15:04:31.873Z,2.42
2019-03-20T15:07:01.914Z,2.05
2019-03-20T15:09:31.734Z,2.60
2019-03-20T15:12:01.699Z,2.08
2019-03-20T15:14:31.835Z,2.05
2019-03-20T15:17:01.888Z,2.00
2019-03-20T15:19:32.333Z,2.33
2019-03-20T15:22:02.846Z,2.00
2019-03-20T15:24:32.870Z,2.45
2019-03-20T15:27:02.812Z,2.80
2019-03-20T15:29:33.655Z,2.45
2019-03-20T15:32:03.758Z,2.70
2019-03-20T15:34:33.736Z,2.40
2019-03-20T15:37:03.756Z,1.55
2019-03-20T15:39:33.719Z,2.98
2019-03-20T15:42:03.615Z,2.70
2019-03-20T15:44:33.704Z,1.55
2019-03-20T15:47:04.003Z,2.40
2019-03-20T15:49:34.232Z,2.15
2019-03-20T15:52:05.330Z,2.55
2019-03-20T15:54:35.446Z,3.27
2019-03-20T15:57:06.559Z,2.50
2019-03-20T15:59:37.353Z,3.20
2019-03-20T16:02:09.899Z,2.60
2019-03-20T16:04:40.182Z,3.08
2019-03-20T16:07:10.317Z,3.40
2019-03-20T16:09:41.060Z,2.85
2019-03-20T16:12:11.187Z,3.10
2019-03-20T16:14:41.228Z,2.60
2019-03-20T16:17:11.765Z,3.02
2019-03-20T16:19:42.015Z,3.70
2019-03-20T16:22:15.347Z,2.30
2019-03-20T16:24:45.471Z,2.58
2019-03-20T16:27:15.821Z,2.83
2019-03-20T16:29:45.619Z,2.52
2019-03-20T16:32:16.364Z,2.77
2019-03-20T16:34:46.448Z,2.40
2019-03-20T16:37:16.449Z,2.60
2019-03-20T16:39:47.706Z,2.90
2019-03-20T16:42:17.877Z,2.45
2019-03-20T16:45:12.916Z,2.70
2019-03-20T16:47:42.893Z,2.50
2019-03-20T16:50:17.905Z,3.25
2019-03-20T16:52:58.472Z,2.37
2019-03-20T16:55:35.747Z,3.17
2019-03-20T16:58:05.754Z,2.17
2019-03-20T17:00:35.879Z,4.30
2019-03-20T17:03:05.813Z,3.22
2019-03-20T17:05:35.719Z,2.80
2019-03-20T17:08:05.741Z,3.15
2019-03-20T17:10:37.435Z,3.17
2019-03-20T17:13:08.766Z,3.30
2019-03-20T17:16:02.584Z,3.67
2019-03-20T17:18:33.655Z,3.10
2019-03-20T17:21:03.571Z,2.80
2019-03-20T17:23:33.645Z,3.45
2019-03-20T17:26:03.630Z,4.20
2019-03-20T17:28:34.833Z,3.45
2019-03-20T17:31:04.635Z,3.37
2019-03-20T17:33:35.036Z,3.83
2019-03-20T17:36:05.117Z,3.85
2019-03-20T17:38:39.326Z,3.33
2019-03-20T17:41:11.936Z,3.98
2019-03-20T17:43:42.574Z,3.65
2019-03-20T17:46:17.452Z,3.05
2019-03-20T17:48:50.344Z,1.98
2019-03-20T17:51:20.764Z,2.77
2019-03-20T17:53:50.748Z,3.08
2019-03-20T17:56:21.066Z,4.80
2019-03-20T17:58:51.011Z,3.10
2019-03-20T18:01:23.454Z,2.98
2019-03-20T18:03:53.816Z,3.37
2019-03-20T18:06:23.693Z,4.60
2019-03-20T18:08:54.395Z,4.22
2019-03-20T18:11:24.804Z,4.37
2019-03-20T18:13:55.767Z,3.50
2019-03-20T18:16:27.535Z,4.03
2019-03-20T18:18:57.559Z,5.28
2019-03-20T18:21:27.533Z,3.83
2019-03-20T18:24:27.493Z,4.72
2019-03-20T18:26:57.680Z,3.90
2019-03-20T18:29:27.655Z,4.25
2019-03-20T18:32:00.937Z,5.10
2019-03-20T18:34:30.909Z,4.30
2019-03-20T18:37:01.773Z,4.33
2019-03-20T18:39:31.819Z,4.60
2019-03-20T18:42:02.357Z,3.90
2019-03-20T18:44:32.913Z,3.70
2019-03-20T18:47:06.046Z,3.67
2019-03-20T18:49:37.683Z,3.87
2019-03-20T18:52:08.307Z,5.87
2019-03-20T18:54:40.257Z,4.62
2019-03-20T18:57:11.364Z,3.58
2019-03-20T19:05:28.892Z,3.72
2019-03-20T19:08:02.356Z,4.85
2019-03-20T19:10:47.253Z,4.45
2019-03-20T19:13:19.889Z,5.33
2019-03-20T19:15:50.930Z,4.90
2019-03-20T19:18:21.339Z,3.95
2019-03-20T19:20:51.453Z,3.52
2019-03-20T19:23:21.892Z,4.92
2019-03-20T19:25:53.350Z,5.00
2019-03-20T19:28:24.075Z,5.90
2019-03-20T19:30:54.252Z,4.97
2019-03-20T19:33:25.408Z,4.25
2019-03-20T19:35:56.081Z,4.85
2019-03-20T19:38:34.956Z,6.75
2019-03-20T19:41:00.748Z,4.30
2019-03-20T19:43:31.829Z,3.80
2019-03-20T19:46:03.201Z,4.58
2019-03-20T19:48:33.179Z,4.37
2019-03-20T19:51:03.356Z,4.70
2019-03-20T19:53:34.461Z,3.80
2019-03-20T19:56:05.099Z,4.78
2019-03-20T19:58:35.827Z,6.15
2019-03-20T20:01:06.094Z,5.58
2019-03-20T20:03:36.603Z,4.45
2019-03-20T20:06:11.257Z,5.05
2019-03-20T20:08:45.115Z,3.85
2019-03-20T20:11:16.387Z,4.70
2019-03-20T20:13:51.464Z,5.10
2019-03-20T20:16:24.558Z,3.67
2019-03-20T20:18:59.003Z,4.85
2019-03-20T20:21:33.889Z,4.78
2019-03-20T20:24:07.196Z,5.92
2019-03-20T20:26:39.911Z,5.50
2019-03-20T20:29:11.756Z,4.62
2019-03-20T20:31:42.862Z,4.80
2019-03-20T20:34:13.358Z,4.15
2019-03-20T20:36:44.971Z,4.53
2019-03-20T20:39:16.494Z,4.22
2019-03-20T20:41:52.435Z,4.00
2019-03-20T20:44:23.124Z,4.67
2019-03-20T20:46:54.914Z,5.10
2019-03-20T20:49:25.350Z,5.65
2019-03-20T20:51:56.274Z,4.22
2019-03-20T20:54:26.724Z,4.58
2019-03-20T20:56:57.125Z,4.85
2019-03-20T20:59:27.554Z,5.30
2019-03-20T21:01:58.209Z,5.10
2019-03-20T21:04:32.056Z,4.40
2019-03-20T21:07:02.573Z,4.65
2019-03-20T21:09:32.788Z,4.00
2019-03-20T21:12:02.883Z,3.60
2019-03-20T21:14:33.006Z,4.10
2019-03-20T21:17:05.726Z,3.20
2019-03-20T21:19:38.211Z,4.12
2019-03-20T21:23:03.842Z,4.00
2019-03-20T21:25:34.827Z,4.37
2019-03-20T21:28:58.231Z,4.25
2019-03-20T21:31:52.943Z,4.10
2019-03-20T21:35:34.898Z,4.00
2019-03-20T21:38:04.359Z,4.53
2019-03-20T21:41:45.188Z,4.12
2019-03-20T21:45:14.536Z,3.98
2019-03-20T21:47:54.104Z,3.55
2019-03-20T21:51:17.203Z,3.30
2019-03-20T21:54:55.531Z,6.15
2019-03-20T21:58:03.719Z,3.75
2019-03-20T22:01:41.887Z,4.22
2019-03-20T22:04:12.600Z,3.70
2019-03-20T22:07:04.650Z,3.83
2019-03-20T22:10:32.848Z,3.42
2019-03-20T22:13:37.414Z,4.95
2019-03-20T22:17:01.923Z,3.70
2019-03-20T22:20:34.934Z,4.03
2019-03-20T22:23:52.855Z,3.55
2019-03-20T22:27:29.059Z,3.72
2019-03-20T22:29:59.941Z,3.67
2019-03-20T22:33:29.181Z,4.00
2019-03-20T22:36:11.590Z,3.72
2019-03-20T22:39:38.638Z,4.55
2019-03-20T22:42:28.552Z,3.42
2019-03-20T22:46:00.151Z,4.58
2019-03-20T22:49:52.260Z,3.83
2019-03-20T22:53:32.817Z,4.37
2019-03-20T22:56:48.619Z,4.10
2019-03-20T22:59:19.382Z,3.10
2019-03-20T23:02:18.161Z,4.45
2019-03-20T23:04:54.381Z,4.17
2019-03-20T23:07:25.061Z,4.28
2019-03-20T23:09:55.791Z,3.83
2019-03-20T23:12:26.457Z,3.95
2019-03-20T23:14:57.232Z,4.08
2019-03-20T23:17:28.000Z,4.15
2019-03-20T23:19:58.958Z,3.75
2019-03-20T23:22:29.741Z,3.85
2019-03-20T23:25:03.046Z,3.45
2019-03-20T23:27:35.992Z,3.50
2019-03-20T23:30:13.107Z,3.60
2019-03-20T23:32:45.434Z,3.90
2019-03-20T23:35:16.173Z,4.25
2019-03-20T23:37:46.815Z,3.35
2019-03-20T23:40:17.498Z,3.65
2019-03-20T23:42:48.211Z,4.03
2019-03-20T23:45:19.166Z,3.98
2019-03-20T23:48:21.099Z,3.55
2019-03-20T23:50:56.448Z,4.65
2019-03-20T23:53:27.082Z,3.50
2019-03-20T23:56:00.443Z,3.20
2019-03-20T23:58:31.133Z,3.12
